Mekong — WDE6357 — position and weather

sailwx.info

Track history (hours):
 
Tides and Currents Weather Stations Pressure Air Temp Water Temp Dewpoint Dewpoint Depression Visibility Wind Speed Wind Dir Waves Ship Positions

Mekong

Owner: Rubys LLC, North Plainfield, NJ. More information available from US FCC via Universal Licensing System and Coast Guard Vessel Documentation Center.

Last reported at 2017-Jul-08 00:38 UTC. Time now 2017-Jul-24 22:39 UTC.
Position N 41°23' W 071°31'.
Warning: this ship's position is 16 days out of date.

Length 26 m.

Type: Pollution control. MMSI: 367379210.

Date/timePositionNaut miles runAvg speedWind from/ knotsBaromVisibWave heightAir tempDewpointWater temp
2017-Jul-08 00:38N 41°23' W 071°31'1 7.2
2017-Jul-08 00:30N 41°22' W 071°31'98 8.3
2017-Jul-07 12:39N 41°31' W 069°21'1 7.9
2017-Jul-07 12:30N 41°31' W 069°19'13 8.0
2017-Jul-07 10:50N 41°32' W 069°02'3 8.1
2017-Jul-07 10:29N 41°32' W 068°58'4 8.2
2017-Jul-07 10:00N 41°32' W 068°52'4 8.7
2017-Jul-07 09:30N 41°31' W 068°47'4 8.4
2017-Jul-07 08:59N 41°31' W 068°41'5 8.3
2017-Jul-07 08:25N 41°31' W 068°35'5 8.0
2017-Jul-07 07:48N 41°31' W 068°28'2 8.0
2017-Jul-07 07:30N 41°30' W 068°25'  
Track history (hours):
 
Tides and Currents Weather Stations Pressure Air Temp Water Temp Dewpoint Dewpoint Depression Visibility Wind Speed Wind Dir Waves Ship Positions

Mekong

Owner: Rubys LLC, North Plainfield, NJ. More information available from US FCC via Universal Licensing System and Coast Guard Vessel Documentation Center.

Last reported at 2017-Jul-08 00:38 UTC. Time now 2017-Jul-24 22:39 UTC.
Position N 41°23' W 071°31'.
Warning: this ship's position is 16 days out of date.

Length 26 m.

Type: Pollution control. MMSI: 367379210.

Date/timePositionNaut miles runAvg speedWind from/ knotsBaromVisibWave heightAir tempDewpointWater temp
2017-Jul-08 00:38N 41°23' W 071°31'1 7.2
2017-Jul-08 00:30N 41°22' W 071°31'98 8.3
2017-Jul-07 12:39N 41°31' W 069°21'1 7.9
2017-Jul-07 12:30N 41°31' W 069°19'13 8.0
2017-Jul-07 10:50N 41°32' W 069°02'3 8.1
2017-Jul-07 10:29N 41°32' W 068°58'4 8.2
2017-Jul-07 10:00N 41°32' W 068°52'4 8.7
2017-Jul-07 09:30N 41°31' W 068°47'4 8.4
2017-Jul-07 08:59N 41°31' W 068°41'5 8.3
2017-Jul-07 08:25N 41°31' W 068°35'5 8.0
2017-Jul-07 07:48N 41°31' W 068°28'2 8.0
2017-Jul-07 07:30N 41°30' W 068°25'  

Dump ship's entire track history